Time,TemperatureF,DewpointF,PressureIn,WindDirection,WindDirectionDegrees,WindSpeedMPH,WindSpeedGustMPH,Humidity,HourlyPrecipIn,Conditions,Clouds,dailyrainin,SoftwareType,DateUTC
2013-01-13 00:02:00,58.7,53.2,30.01,West,281,4.0,5.0,82,0.00,,BKN021,-99.99,VWS V12.06,2013-01-13 05:02:00,
2013-01-13 00:30:00,56.3,55.5,30.04,SW,215,5.0,7.0,97,0.00,,BKN021,-99.99,VWS V12.06,2013-01-13 05:30:00,
2013-01-13 01:00:00,56.2,55.4,30.04,SW,216,5.0,6.0,97,0.00,,OVC021,-99.99,VWS V12.06,2013-01-13 06:00:00,
2013-01-13 01:30:00,56.3,55.5,30.04,SW,220,9.0,9.0,97,0.00,,OVC021,-99.99,VWS V12.06,2013-01-13 06:30:00,
2013-01-13 01:32:00,57.8,53.0,30.00,NE,51,1.0,2.0,84,0.00,,OVC021,-99.99,VWS V12.06,2013-01-13 06:32:00,
2013-01-13 02:00:00,56.2,55.7,30.04,SW,223,7.0,7.0,98,0.00,,BKN019,-99.99,VWS V12.06,2013-01-13 07:00:00,
2013-01-13 02:30:00,56.2,55.7,30.04,SSW,211,4.0,6.0,98,0.00,,BKN019,-99.99,VWS V12.06,2013-01-13 07:30:00,
2013-01-13 03:00:00,56.3,55.8,30.03,SSW,199,7.0,7.0,98,0.00,,OVC019,-99.99,VWS V12.06,2013-01-13 08:00:00,
2013-01-13 03:30:00,56.2,55.7,30.03,SW,225,6.0,7.0,98,0.00,,OVC019,-99.99,VWS V12.06,2013-01-13 08:30:00,
2013-01-13 04:00:00,56.2,55.7,30.02,SW,225,6.0,8.0,98,0.00,,BKN019,-99.99,VWS V12.06,2013-01-13 09:00:00,
2013-01-13 04:30:00,56.0,55.5,30.01,SSW,207,5.0,11.0,98,0.00,,BKN019,-99.99,VWS V12.06,2013-01-13 09:30:00,
2013-01-13 05:00:00,55.8,55.2,30.00,SW,215,8.0,8.0,98,0.00,,BKN017,-99.99,VWS V12.06,2013-01-13 10:00:00,
2013-01-13 05:30:00,55.7,55.2,30.00,SW,223,13.0,13.0,98,0.00,,BKN017,-99.99,VWS V12.06,2013-01-13 10:30:00,
2013-01-13 06:00:00,55.3,54.8,30.00,SSW,205,7.0,9.0,98,0.00,,SCT017,-99.99,VWS V12.06,2013-01-13 11:00:00,
2013-01-13 06:30:00,55.2,54.7,30.00,SSW,213,10.0,10.0,98,0.00,,SCT017,-99.99,VWS V12.06,2013-01-13 11:30:00,
2013-01-13 07:00:00,55.1,54.5,30.02,SW,224,6.0,7.0,98,0.00,,CLR,-99.99,VWS V12.06,2013-01-13 12:00:00,
2013-01-13 07:30:00,54.9,54.3,30.02,SW,229,5.0,7.0,98,0.00,,CLR,-99.99,VWS V12.06,2013-01-13 12:30:00,
2013-01-13 08:00:00,54.7,54.2,30.04,SW,226,8.0,8.0,98,0.00,,CLR,-99.99,VWS V12.06,2013-01-13 13:00:00,
2013-01-13 08:30:00,55.1,54.5,30.05,WSW,240,4.0,9.0,98,0.00,,CLR,-99.99,VWS V12.06,2013-01-13 13:30:00,
2013-01-13 09:00:00,55.2,54.7,30.07,SW,214,3.0,4.0,98,0.00,,SCT021,-99.99,VWS V12.06,2013-01-13 14:00:00,
2013-01-13 09:30:00,55.4,54.8,30.08,WSW,240,2.0,3.0,98,0.00,,SCT021,-99.99,VWS V12.06,2013-01-13 14:30:00,
2013-01-13 10:00:00,56.2,55.7,30.07,South,181,4.0,10.0,98,0.00,,CLR,-99.99,VWS V12.06,2013-01-13 15:00:00,
2013-01-13 10:30:00,57.1,56.5,30.07,SSW,202,4.0,6.0,98,0.00,,CLR,-99.99,VWS V12.06,2013-01-13 15:30:00,
2013-01-13 11:00:00,58.7,57.6,30.07,South,187,6.0,6.0,96,0.00,,CLR,-99.99,VWS V12.06,2013-01-13 16:00:00,
2013-01-13 11:30:00,59.7,57.4,30.05,SW,225,6.0,7.0,92,0.00,,CLR,-99.99,VWS V12.06,2013-01-13 16:30:00,
2013-01-13 12:00:00,62.3,57.7,30.03,SSW,207,4.0,10.0,85,0.00,,CLR,-99.99,VWS V12.06,2013-01-13 17:00:00,
2013-01-13 12:30:00,61.9,57.0,30.02,SW,222,7.0,7.0,84,0.00,,CLR,-99.99,VWS V12.06,2013-01-13 17:30:00,
2013-01-13 13:00:00,61.0,56.1,30.01,SW,225,8.0,12.0,84,0.00,,CLR,-99.99,VWS V12.06,2013-01-13 18:00:00,
2013-01-13 13:30:00,60.9,56.4,30.01,SW,230,6.0,9.0,85,0.00,,CLR,-99.99,VWS V12.06,2013-01-13 18:30:00,
2013-01-13 14:00:00,61.6,56.7,30.00,SSW,211,8.0,13.0,84,0.00,,SCT019,-99.99,VWS V12.06,2013-01-13 19:00:00,
2013-01-13 14:30:00,61.4,56.5,30.01,SSW,213,7.0,11.0,84,0.00,,SCT019,-99.99,VWS V12.06,2013-01-13 19:30:00,
2013-01-13 15:00:00,62.0,57.1,30.01,SW,225,5.0,10.0,84,0.00,,SCT025,-99.99,VWS V12.06,2013-01-13 20:00:00,
2013-01-13 15:30:00,62.0,56.8,30.02,SSW,207,10.0,10.0,83,0.00,,SCT025,-99.99,VWS V12.06,2013-01-13 20:30:00,
2013-01-13 16:00:00,61.8,56.9,30.03,SSW,213,4.0,4.0,84,0.00,,BKN050,-99.99,VWS V12.06,2013-01-13 21:00:00,
2013-01-13 16:30:00,61.2,56.7,30.03,SW,214,6.0,6.0,85,0.00,,BKN050,-99.99,VWS V12.06,2013-01-13 21:30:00,
2013-01-13 17:00:00,60.4,56.5,30.03,SW,215,5.0,5.0,87,0.00,,OVC049,-99.99,VWS V12.06,2013-01-13 22:00:00,
2013-01-13 17:30:00,59.8,56.2,30.03,SSW,209,8.0,19.0,88,0.00,,OVC049,-99.99,VWS V12.06,2013-01-13 22:30:00,
2013-01-13 18:00:00,59.0,56.1,30.03,SW,222,7.0,9.0,90,0.00,,SCT049,-99.99,VWS V12.06,2013-01-13 23:00:00,
2013-01-13 18:30:00,58.6,56.0,30.03,SW,225,7.0,7.0,91,0.00,,SCT049,-99.99,VWS V12.06,2013-01-13 23:30:00,
2013-01-13 19:00:00,58.0,55.4,30.03,SW,225,7.0,8.0,91,0.00,,BKN029,-99.99,VWS V12.06,2013-01-14 00:00:00,
2013-01-13 19:30:00,57.1,54.8,30.03,WSW,238,5.0,7.0,92,0.00,,BKN029,-99.99,VWS V12.06,2013-01-14 00:30:00,
2013-01-13 20:00:00,56.2,54.2,30.02,SW,232,5.0,6.0,93,0.00,,BKN016,-99.99,VWS V12.06,2013-01-14 01:00:00,
2013-01-13 20:30:00,56.0,54.3,30.02,SW,221,4.0,4.0,94,0.00,,BKN016,-99.99,VWS V12.06,2013-01-14 01:30:00,
2013-01-13 21:00:00,56.7,54.7,30.02,SW,214,7.0,8.0,93,0.00,,CLR,-99.99,VWS V12.06,2013-01-14 02:00:00,
2013-01-13 21:30:00,56.8,54.8,30.02,SSW,210,5.0,6.0,93,0.00,,CLR,-99.99,VWS V12.06,2013-01-14 02:30:00,
2013-01-13 22:00:00,56.8,54.8,30.02,SW,220,5.0,8.0,93,0.00,,BKN065,-99.99,VWS V12.06,2013-01-14 03:00:00,
2013-01-13 22:30:00,57.2,55.5,30.02,SW,229,7.0,7.0,94,0.00,,BKN065,-99.99,VWS V12.06,2013-01-14 03:30:00,
2013-01-13 23:00:00,57.6,56.2,30.03,SW,234,9.0,12.0,95,0.00,,OVC055,-99.99,VWS V12.06,2013-01-14 04:00:00,
2013-01-13 23:30:00,57.5,56.1,30.03,SW,224,9.0,12.0,95,0.00,,OVC055,-99.99,VWS V12.06,2013-01-14 04:30:00,